createdAt,value
2024-04-08T10:19:15.768Z,5.32
2024-04-08T10:22:19.996Z,5.47
2024-04-08T10:25:49.741Z,4.78
2024-04-08T10:28:54.244Z,5.10
2024-04-08T10:31:58.494Z,3.45
2024-04-08T10:35:02.250Z,5.78
2024-04-08T10:38:07.261Z,6.68
2024-04-08T10:41:10.823Z,5.95
2024-04-08T10:44:15.183Z,6.45
2024-04-08T10:47:19.074Z,7.75
2024-04-08T10:50:23.206Z,7.25
2024-04-08T10:53:30.984Z,7.78
2024-04-08T10:56:35.630Z,7.68
2024-04-08T10:59:39.838Z,7.93
2024-04-08T11:02:43.747Z,6.40
2024-04-08T11:05:46.993Z,4.93
2024-04-08T11:08:54.192Z,5.32
2024-04-08T11:11:57.572Z,4.75
2024-04-08T11:15:06.162Z,6.47
2024-04-08T11:18:13.606Z,5.90
2024-04-08T11:21:18.020Z,3.92
2024-04-08T11:24:21.943Z,5.30
2024-04-08T11:27:26.142Z,4.18
2024-04-08T11:30:37.190Z,4.22
2024-04-08T11:33:41.581Z,4.70
2024-04-08T11:36:45.637Z,3.00
2024-04-08T11:39:49.569Z,4.50
2024-04-08T11:42:53.856Z,5.13
2024-04-08T11:45:58.982Z,3.83
2024-04-08T11:49:03.898Z,3.72
2024-04-08T11:52:08.363Z,3.28
2024-04-08T11:55:12.261Z,3.85
2024-04-08T11:58:16.363Z,2.08
2024-04-08T12:01:20.397Z,3.03
2024-04-08T12:04:24.338Z,2.67
2024-04-08T12:07:27.687Z,2.60
2024-04-08T12:10:31.852Z,2.50
2024-04-08T12:13:35.259Z,2.47
2024-04-08T12:16:38.886Z,2.80
2024-04-08T12:19:45.518Z,4.30
2024-04-08T12:22:49.502Z,9.38
2024-04-08T12:25:52.793Z,8.45
2024-04-08T12:28:57.331Z,7.85
2024-04-08T12:32:01.031Z,8.43
2024-04-08T12:35:05.524Z,5.18
2024-04-08T12:38:10.834Z,5.38
2024-04-08T12:41:18.094Z,3.90
2024-04-08T12:44:21.488Z,7.07
2024-04-08T12:47:25.515Z,5.85
2024-04-08T12:50:32.250Z,4.90
2024-04-08T12:53:36.939Z,3.90
2024-04-08T12:56:40.340Z,4.15
2024-04-08T12:59:44.174Z,5.30
2024-04-08T13:02:47.822Z,6.68
2024-04-08T13:05:56.498Z,4.57
2024-04-08T13:12:03.954Z,4.13
2024-04-08T13:15:07.470Z,6.60
2024-04-08T13:18:11.744Z,15.85
2024-04-08T13:21:15.430Z,17.10
2024-04-08T13:24:20.547Z,14.70
2024-04-08T13:27:24.551Z,7.28
2024-04-08T13:30:29.003Z,4.22
2024-04-08T13:33:33.235Z,3.42
2024-04-08T13:36:39.337Z,3.92
2024-04-08T13:39:43.499Z,3.53
2024-04-08T13:42:47.325Z,2.97
2024-04-08T13:45:51.223Z,3.63
2024-04-08T13:48:55.764Z,5.72
2024-04-08T13:51:59.600Z,37.78
2024-04-08T13:55:03.956Z,37.47
2024-04-08T13:58:07.411Z,41.92
2024-04-08T14:01:11.961Z,42.90
2024-04-08T14:04:17.099Z,35.35
2024-04-08T14:07:21.084Z,63.88
2024-04-08T14:10:24.876Z,43.25
2024-04-08T14:13:28.833Z,41.60
2024-04-08T14:16:32.987Z,49.17
2024-04-08T14:19:36.108Z,25.98
2024-04-08T14:22:40.703Z,24.42
2024-04-08T14:25:44.250Z,20.55
2024-04-08T14:28:48.985Z,34.13
2024-04-08T14:31:54.763Z,28.33
2024-04-08T14:34:58.796Z,30.02
2024-04-08T14:38:29.865Z,33.25
2024-04-08T14:41:27.019Z,30.00
2024-04-08T14:44:40.280Z,33.13
2024-04-08T14:47:49.058Z,33.10
2024-04-08T14:50:53.022Z,30.20
2024-04-08T14:53:57.037Z,27.23
2024-04-08T14:57:07.519Z,26.55
2024-04-08T15:00:12.109Z,25.63
2024-04-08T15:03:16.851Z,22.25
2024-04-08T15:06:20.834Z,23.90
2024-04-08T15:09:24.041Z,22.45
2024-04-08T15:12:27.999Z,22.42
2024-04-08T15:15:31.170Z,21.58
2024-04-08T15:18:35.610Z,20.67
2024-04-08T15:21:39.842Z,39.22
2024-04-08T15:24:45.667Z,33.05
2024-04-08T15:27:50.020Z,40.10
2024-04-08T15:31:01.159Z,34.35
2024-04-08T15:34:05.971Z,31.52
2024-04-08T15:37:11.689Z,31.17
2024-04-08T15:40:15.535Z,28.58
2024-04-08T15:43:18.889Z,22.05
2024-04-08T15:46:23.538Z,29.30
2024-04-08T15:49:27.193Z,29.80
2024-04-08T15:52:31.032Z,30.23
2024-04-08T15:55:34.576Z,17.27
2024-04-08T15:58:39.096Z,18.92
2024-04-08T16:01:42.873Z,14.50
2024-04-08T16:04:50.744Z,12.15
2024-04-08T16:07:54.866Z,15.63
2024-04-08T16:10:58.703Z,16.30
2024-04-08T16:14:02.517Z,19.63
2024-04-08T16:17:07.493Z,17.45
2024-04-08T16:20:12.171Z,13.43
2024-04-08T16:23:27.261Z,13.95
2024-04-08T16:26:43.064Z,16.75
2024-04-08T16:29:48.823Z,21.95
2024-04-08T16:32:52.890Z,22.92
2024-04-08T16:35:56.459Z,20.17
2024-04-08T16:39:00.427Z,27.55
2024-04-08T16:42:04.742Z,39.70
2024-04-08T16:45:08.684Z,50.55
2024-04-08T16:48:12.807Z,52.13
2024-04-08T16:51:17.376Z,33.13
2024-04-08T16:54:21.212Z,44.78
2024-04-08T16:57:25.067Z,37.60
2024-04-08T17:00:29.113Z,31.15
2024-04-08T17:03:33.384Z,21.08
2024-04-08T17:06:48.316Z,16.65
2024-04-08T17:12:55.796Z,54.70
2024-04-08T17:15:59.759Z,103.85
2024-04-08T17:19:05.265Z,88.60
2024-04-08T17:22:09.205Z,29.60
2024-04-08T17:25:13.037Z,15.48
2024-04-08T17:28:16.789Z,22.85
2024-04-08T17:31:22.135Z,22.98
2024-04-08T17:34:26.369Z,24.50
2024-04-08T17:37:30.721Z,41.10
2024-04-08T17:40:34.163Z,34.70
2024-04-08T17:43:44.848Z,33.10
2024-04-08T17:46:49.522Z,24.95
2024-04-08T17:49:54.325Z,29.48
2024-04-08T17:52:57.459Z,32.15
2024-04-08T17:56:03.582Z,28.80
2024-04-08T17:59:07.046Z,23.55
2024-04-08T18:02:11.318Z,26.40
2024-04-08T18:05:14.847Z,18.98
2024-04-08T18:08:19.557Z,23.15
2024-04-08T18:11:24.278Z,25.00
2024-04-08T18:14:28.052Z,20.83
2024-04-08T18:17:32.271Z,19.90
2024-04-08T18:20:35.938Z,21.05
2024-04-08T18:23:39.948Z,24.75
2024-04-08T18:26:43.291Z,22.30
2024-04-08T18:29:47.728Z,26.48
2024-04-08T18:32:53.926Z,25.17
2024-04-08T18:35:58.457Z,28.95
2024-04-08T18:39:04.179Z,25.73
2024-04-08T18:42:08.598Z,27.77
2024-04-08T18:45:12.086Z,25.10
2024-04-08T18:48:16.430Z,23.23
2024-04-08T18:51:20.271Z,20.48
2024-04-08T18:54:24.688Z,19.50
2024-04-08T18:57:28.095Z,20.30
2024-04-08T19:00:32.559Z,18.27
2024-04-08T19:03:36.209Z,15.80
2024-04-08T19:06:41.678Z,10.25
2024-04-08T19:09:45.913Z,16.50
2024-04-08T19:12:50.355Z,16.10
2024-04-08T19:15:57.847Z,13.77
2024-04-08T19:19:02.115Z,16.77
2024-04-08T19:22:06.044Z,9.75
2024-04-08T19:25:09.950Z,11.52
2024-04-08T19:28:13.736Z,8.02
2024-04-08T19:31:16.865Z,8.55
2024-04-08T19:34:20.655Z,9.50
2024-04-08T19:37:23.892Z,9.02
2024-04-08T19:40:27.698Z,6.68
2024-04-08T19:43:31.551Z,10.98
2024-04-08T19:46:35.688Z,8.60
2024-04-08T19:49:40.444Z,15.05
2024-04-08T19:52:44.447Z,21.27
2024-04-08T19:55:48.434Z,16.83
2024-04-08T19:58:52.938Z,13.43
2024-04-08T20:01:57.325Z,12.65
2024-04-08T20:05:00.871Z,14.50
2024-04-08T20:08:05.369Z,7.78
2024-04-08T20:11:14.177Z,10.63
2024-04-08T20:14:18.060Z,11.27
2024-04-08T20:17:22.003Z,9.48
2024-04-08T20:20:25.638Z,11.10
2024-04-08T20:23:29.668Z,9.05
2024-04-08T20:26:35.280Z,8.38
2024-04-08T20:29:38.954Z,10.27
2024-04-08T20:32:42.757Z,12.43
2024-04-08T20:36:02.031Z,10.25
2024-04-08T20:39:05.508Z,10.95
2024-04-08T20:42:09.920Z,19.27
2024-04-08T20:45:13.376Z,14.13
2024-04-08T20:48:17.279Z,7.82
2024-04-08T20:51:20.881Z,9.50
2024-04-08T20:54:25.192Z,7.80
2024-04-08T20:57:29.086Z,9.93
2024-04-08T21:00:33.614Z,8.23
2024-04-08T21:03:38.109Z,7.93
2024-04-08T21:06:42.664Z,10.68
2024-04-08T21:09:46.174Z,7.07
2024-04-08T21:12:49.814Z,5.50
2024-04-08T21:16:00.145Z,6.28
2024-04-08T21:19:03.763Z,2.90
2024-04-08T21:22:07.034Z,3.67
2024-04-08T21:25:11.402Z,4.50
2024-04-08T21:28:14.831Z,4.18
2024-04-08T21:31:21.114Z,2.55
2024-04-08T21:34:28.156Z,6.05
2024-04-08T21:37:32.461Z,5.70
2024-04-08T21:40:39.413Z,3.92
2024-04-08T21:43:44.647Z,5.80
2024-04-08T21:46:48.256Z,4.45
2024-04-08T21:49:52.757Z,7.55
2024-04-08T21:52:55.899Z,5.70
2024-04-08T21:56:01.932Z,6.90
2024-04-08T21:59:05.016Z,7.18
2024-04-08T22:02:08.452Z,6.13
2024-04-08T22:05:11.611Z,8.77
2024-04-08T22:08:15.186Z,4.88
2024-04-08T22:11:19.427Z,7.22
2024-04-08T22:14:22.599Z,4.85
2024-04-08T22:17:26.310Z,4.18
2024-04-08T22:20:29.654Z,2.92
2024-04-08T22:23:33.252Z,3.78
2024-04-08T22:26:36.514Z,4.75
2024-04-08T22:29:40.816Z,5.57
2024-04-08T22:32:44.600Z,5.47
2024-04-08T22:35:48.570Z,4.65
2024-04-08T22:38:52.524Z,5.10
2024-04-08T22:41:56.412Z,6.55
2024-04-08T22:45:00.325Z,6.50
2024-04-08T22:48:04.346Z,6.75
2024-04-08T22:51:08.382Z,10.43
2024-04-08T22:54:12.762Z,22.38
2024-04-08T22:57:16.681Z,9.65
2024-04-08T23:00:20.349Z,6.50
2024-04-08T23:03:23.553Z,10.15
2024-04-08T23:06:27.074Z,11.27
2024-04-08T23:09:30.412Z,8.50
2024-04-08T23:12:33.811Z,11.88
2024-04-08T23:15:37.826Z,6.97
2024-04-08T23:18:41.824Z,11.25
2024-04-08T23:21:45.729Z,5.90
2024-04-08T23:24:49.119Z,10.18
2024-04-08T23:27:53.256Z,13.60
2024-04-08T23:30:56.965Z,4.60
2024-04-08T23:34:01.322Z,8.77
2024-04-08T23:37:05.066Z,7.07
2024-04-08T23:40:14.079Z,5.70
2024-04-08T23:43:17.723Z,6.35
2024-04-08T23:46:21.706Z,6.80
2024-04-08T23:49:25.160Z,7.65
2024-04-08T23:52:29.025Z,5.03
2024-04-08T23:55:32.558Z,7.57
2024-04-08T23:58:37.411Z,6.53
